Time;durP1;ratioP1;P1;durP2;ratioP2;P2;SDS_P1;SDS_P2;PMS_P1;PMS_P2;Temp;Humidity;BMP_temperature;BMP_pressure;BME280_temperature;BME280_humidity;BME280_pressure;Samples;Min_cycle;Max_cycle;Signal;HPM_P1;HPM_P2
2023/03/06 00:00:23;;;;;;;3.67;0.93;;;3.50;99.90;;;;;;5055948;28;20503;-74
2023/03/06 00:02:49;;;;;;;2.38;1.30;;;3.50;99.90;;;;;;5067594;28;20082;-74
2023/03/06 00:05:15;;;;;;;2.38;1.92;;;3.50;99.90;;;;;;5085929;28;20043;-74
2023/03/06 00:07:42;;;;;;;1.33;0.63;;;3.50;99.90;;;;;;5086046;28;20081;-75
2023/03/06 00:10:11;;;;;;;4.80;1.33;;;3.50;99.90;;;;;;5056915;28;20423;-74
2023/03/06 00:12:36;;;;;;;1.63;1.00;;;3.50;99.90;;;;;;5031447;28;20053;-74
2023/03/06 00:15:02;;;;;;;2.15;1.52;;;3.50;99.90;;;;;;5060550;28;20409;-74
2023/03/06 00:17:28;;;;;;;0.90;0.77;;;3.50;99.90;;;;;;5086904;28;20510;-74
2023/03/06 00:19:54;;;;;;;0.65;0.65;;;3.60;99.90;;;;;;5051869;28;20112;-74
2023/03/06 00:22:19;;;;;;;2.25;1.25;;;3.50;99.90;;;;;;5068139;28;20448;-74
2023/03/06 00:24:45;;;;;;;3.43;1.60;;;3.50;99.90;;;;;;5085339;28;20036;-74
2023/03/06 00:27:10;;;;;;;6.15;1.77;;;3.50;99.90;;;;;;5085620;28;20040;-74
2023/03/06 00:29:36;;;;;;;5.50;1.35;;;3.50;99.90;;;;;;5068364;28;20068;-74
2023/03/06 00:32:01;;;;;;;2.40;1.13;;;3.50;99.90;;;;;;5067488;28;20093;-73
2023/03/06 00:34:27;;;;;;;2.08;1.27;;;3.50;99.90;;;;;;5086735;28;20539;-74
2023/03/06 00:36:53;;;;;;;18.45;1.90;;;3.40;99.90;;;;;;5068145;28;20040;-74
2023/03/06 00:39:18;;;;;;;3.15;1.75;;;3.50;99.90;;;;;;5084877;28;20138;-74
2023/03/06 00:41:44;;;;;;;6.75;1.70;;;3.50;99.90;;;;;;5067935;28;20040;-74
2023/03/06 00:44:09;;;;;;;1.52;1.05;;;3.50;99.90;;;;;;5085592;28;20488;-74
2023/03/06 00:46:35;;;;;;;0.73;0.73;;;3.50;99.90;;;;;;5078771;28;20032;-74
2023/03/06 00:49:01;;;;;;;9.70;1.27;;;3.50;99.90;;;;;;5047726;28;20097;-74
2023/03/06 00:51:26;;;;;;;2.78;1.10;;;3.50;99.90;;;;;;5048396;28;20562;-74
2023/03/06 00:53:52;;;;;;;0.80;0.50;;;3.40;99.90;;;;;;5046901;28;20049;-74
2023/03/06 00:56:18;;;;;;;3.70;1.40;;;3.40;99.90;;;;;;5065561;28;20400;-74
2023/03/06 00:58:44;;;;;;;1.02;0.50;;;3.40;99.90;;;;;;5048664;28;20508;-74
2023/03/06 01:01:10;;;;;;;2.00;0.40;;;3.30;99.90;;;;;;5065703;28;20039;-74
2023/03/06 01:03:36;;;;;;;0.65;0.50;;;3.30;99.90;;;;;;5047904;28;20404;-74
2023/03/06 01:06:02;;;;;;;0.90;0.57;;;3.30;99.90;;;;;;5065329;28;20044;-74
2023/03/06 01:08:27;;;;;;;0.40;0.40;;;3.30;99.90;;;;;;5062169;28;20399;-74
2023/03/06 01:10:53;;;;;;;4.65;1.25;;;3.30;99.90;;;;;;5067902;28;20523;-74
2023/03/06 01:13:18;;;;;;;2.78;1.27;;;3.30;99.90;;;;;;5084151;28;20049;-74
2023/03/06 01:15:44;;;;;;;0.88;0.60;;;3.30;99.90;;;;;;5067635;28;20048;-74
2023/03/06 01:18:10;;;;;;;4.90;1.65;;;3.30;99.90;;;;;;5085489;28;20032;-74
2023/03/06 01:20:35;;;;;;;1.85;1.00;;;3.30;99.90;;;;;;5085739;28;20475;-74
2023/03/06 01:23:02;;;;;;;3.80;0.73;;;3.40;99.90;;;;;;5084378;28;20036;-75
2023/03/06 01:25:27;;;;;;;3.77;1.53;;;3.40;99.90;;;;;;5067961;28;20090;-74
2023/03/06 01:27:53;;;;;;;2.58;1.98;;;3.40;99.90;;;;;;5067233;28;20075;-74
2023/03/06 01:30:19;;;;;;;3.43;1.43;;;3.40;99.90;;;;;;5085570;28;20081;-74
2023/03/06 01:32:45;;;;;;;2.72;1.25;;;3.40;99.90;;;;;;5085614;28;20428;-74
2023/03/06 01:35:11;;;;;;;2.55;0.73;;;3.50;99.90;;;;;;5084963;28;20082;-74
2023/03/06 01:37:37;;;;;;;0.38;0.38;;;3.50;99.90;;;;;;5058337;28;20039;-73
2023/03/06 01:40:05;;;;;;;1.35;0.60;;;3.50;99.90;;;;;;5047013;28;20041;-73
2023/03/06 01:42:30;;;;;;;0.80;0.80;;;3.50;99.90;;;;;;5065538;28;20577;-74
2023/03/06 01:45:04;;;;;;;0.68;0.40;;;3.50;99.90;;;;;;5047516;28;20123;-74
2023/03/06 01:47:30;;;;;;;0.35;0.28;;;3.50;99.90;;;;;;5080108;28;20127;-75
2023/03/06 01:49:57;;;;;;;0.23;0.23;;;3.40;99.90;;;;;;5081781;28;20132;-74
2023/03/06 01:52:27;;;;;;;0.98;0.40;;;3.40;99.90;;;;;;5064865;28;20090;-76
2023/03/06 01:55:01;;;;;;;0.30;0.30;;;3.40;99.90;;;;;;5065399;28;20055;-74
2023/03/06 01:57:33;;;;;;;0.40;0.40;;;3.40;99.90;;;;;;5065808;28;20041;-75
2023/03/06 02:00:16;;;;;;;4.13;1.25;;;3.40;99.90;;;;;;5048228;28;20040;-76
2023/03/06 02:05:27;;;;;;;2.10;0.38;;;3.30;99.90;;;;;;5047692;26;20056;-72
2023/03/06 02:07:53;;;;;;;0.68;0.68;;;3.30;99.90;;;;;;5063141;28;20041;-74
2023/03/06 02:10:19;;;;;;;0.65;0.20;;;3.20;99.90;;;;;;5064943;28;20124;-74
2023/03/06 02:12:47;;;;;;;0.23;0.20;;;3.20;99.90;;;;;;5065349;28;20045;-74
2023/03/06 02:15:15;;;;;;;1.13;0.40;;;3.10;99.90;;;;;;5064563;28;20094;-74
2023/03/06 02:17:43;;;;;;;1.73;0.50;;;3.10;99.90;;;;;;5064832;28;20411;-74
2023/03/06 02:20:30;;;;;;;0.20;0.20;;;3.10;99.90;;;;;;5065008;28;20040;-74
2023/03/06 02:23:08;;;;;;;1.13;0.35;;;3.10;99.90;;;;;;5063410;28;20037;-75
2023/03/06 02:25:42;;;;;;;0.98;0.30;;;3.10;99.90;;;;;;5066217;28;20130;-74
2023/03/06 02:28:11;;;;;;;0.55;0.55;;;3.00;99.90;;;;;;5068734;28;20090;-74
2023/03/06 02:30:37;;;;;;;0.20;0.20;;;3.00;99.90;;;;;;5067330;28;20076;-74
2023/03/06 02:33:03;;;;;;;1.25;0.35;;;3.00;99.90;;;;;;5067062;28;20094;-75
2023/03/06 02:35:33;;;;;;;1.45;0.43;;;2.90;99.90;;;;;;5061429;28;20044;-74
2023/03/06 02:38:04;;;;;;;0.53;0.40;;;2.90;99.90;;;;;;5049198;28;20452;-74
2023/03/06 02:40:30;;;;;;;0.60;0.45;;;2.90;99.90;;;;;;5048471;28;20132;-75
2023/03/06 02:42:57;;;;;;;0.47;0.47;;;2.90;99.90;;;;;;5048986;28;20171;-74
2023/03/06 02:45:29;;;;;;;0.40;0.40;;;2.90;99.90;;;;;;5046646;28;20088;-73
2023/03/06 02:47:54;;;;;;;6.53;0.50;;;2.90;99.90;;;;;;5047485;28;20037;-74
2023/03/06 02:50:20;;;;;;;0.47;0.30;;;3.00;99.90;;;;;;5062161;28;20093;-73
2023/03/06 02:52:46;;;;;;;0.30;0.20;;;3.00;99.90;;;;;;5067349;28;20041;-74
2023/03/06 02:55:11;;;;;;;0.98;0.45;;;3.00;99.90;;;;;;5067880;28;20648;-74
2023/03/06 02:57:37;;;;;;;0.50;0.50;;;3.00;99.90;;;;;;5068394;28;20043;-74
2023/03/06 03:00:04;;;;;;;0.20;0.20;;;3.00;99.90;;;;;;5052289;28;20095;-73
2023/03/06 03:02:29;;;;;;;0.47;0.30;;;3.00;99.90;;;;;;5047397;28;20434;-76
2023/03/06 03:04:55;;;;;;;0.52;0.20;;;3.00;99.90;;;;;;5048008;28;20114;-74
2023/03/06 03:07:20;;;;;;;0.30;0.30;;;3.00;99.90;;;;;;5045451;28;20041;-74
2023/03/06 03:09:46;;;;;;;2.87;1.60;;;3.00;99.90;;;;;;5047636;28;20439;-74
2023/03/06 03:12:11;;;;;;;0.40;0.30;;;2.90;99.90;;;;;;5046240;28;20044;-74
2023/03/06 03:14:37;;;;;;;0.43;0.40;;;2.90;99.90;;;;;;5046762;28;20443;-74
2023/03/06 03:17:03;;;;;;;0.40;0.20;;;3.00;99.90;;;;;;5047773;28;20041;-74
2023/03/06 03:19:28;;;;;;;1.20;0.50;;;3.00;99.90;;;;;;5048058;28;20033;-74
2023/03/06 03:21:54;;;;;;;1.23;0.40;;;2.90;99.90;;;;;;5048085;28;20047;-74
2023/03/06 03:24:19;;;;;;;0.30;0.30;;;2.90;99.90;;;;;;5028360;28;20081;-74
2023/03/06 03:26:45;;;;;;;0.73;0.50;;;2.90;99.90;;;;;;5029686;28;20485;-74
2023/03/06 03:29:11;;;;;;;0.80;0.60;;;2.90;99.90;;;;;;5046059;28;20052;-74
2023/03/06 03:31:36;;;;;;;0.77;0.70;;;2.90;99.90;;;;;;5046453;28;20041;-74
2023/03/06 03:34:02;;;;;;;0.40;0.40;;;2.90;99.90;;;;;;5045976;28;20041;-73
2023/03/06 03:36:27;;;;;;;0.77;0.60;;;2.90;99.90;;;;;;5045643;28;20037;-74
2023/03/06 03:38:54;;;;;;;0.38;0.38;;;2.80;99.90;;;;;;5046359;28;20041;-74
2023/03/06 03:41:20;;;;;;;1.05;0.60;;;2.80;99.90;;;;;;5045982;28;20045;-74
2023/03/06 03:43:45;;;;;;;1.50;0.97;;;2.80;99.90;;;;;;5045843;28;20048;-74
2023/03/06 03:46:11;;;;;;;1.10;0.70;;;2.70;99.90;;;;;;5049560;28;20070;-75
2023/03/06 03:48:36;;;;;;;0.57;0.57;;;2.70;99.90;;;;;;5066023;28;20091;-74
2023/03/06 03:51:11;;;;;;;0.83;0.47;;;2.70;99.90;;;;;;5065982;28;20048;-75
2023/03/06 03:53:37;;;;;;;0.28;0.28;;;2.60;99.90;;;;;;5066152;28;20044;-73
2023/03/06 03:56:04;;;;;;;1.42;0.63;;;2.70;99.90;;;;;;5066986;28;20037;-74
2023/03/06 03:58:30;;;;;;;0.63;0.40;;;2.60;99.90;;;;;;5063634;28;20076;-76
2023/03/06 04:00:55;;;;;;;0.70;0.70;;;2.60;99.90;;;;;;5066050;28;20049;-74
2023/03/06 04:03:22;;;;;;;1.50;0.90;;;2.60;99.90;;;;;;5065029;28;20515;-74
2023/03/06 04:05:47;;;;;;;0.77;0.77;;;2.60;99.90;;;;;;5048622;28;20106;-74
2023/03/06 04:08:13;;;;;;;1.47;1.10;;;2.60;99.90;;;;;;5065671;28;20396;-74
2023/03/06 04:10:39;;;;;;;0.53;0.50;;;2.60;99.90;;;;;;5065260;28;20139;-74
2023/03/06 04:13:05;;;;;;;0.88;0.85;;;2.70;99.90;;;;;;5064857;28;20119;-74
2023/03/06 04:15:30;;;;;;;0.57;0.57;;;2.70;99.90;;;;;;5065394;28;20063;-75
2023/03/06 04:17:56;;;;;;;2.07;0.70;;;2.70;99.90;;;;;;5067016;28;20040;-74
2023/03/06 04:20:22;;;;;;;0.60;0.60;;;2.80;99.90;;;;;;5066012;28;20040;-74
2023/03/06 04:22:48;;;;;;;1.80;1.00;;;2.80;99.90;;;;;;5064079;28;20041;-73
2023/03/06 04:25:13;;;;;;;0.70;0.70;;;2.80;99.90;;;;;;5064638;28;20045;-75
2023/03/06 04:27:39;;;;;;;4.03;1.43;;;2.80;99.90;;;;;;5065158;28;20093;-74
2023/03/06 04:30:06;;;;;;;2.00;0.70;;;2.80;99.90;;;;;;5066211;28;20040;-74
2023/03/06 04:32:31;;;;;;;2.00;0.93;;;2.80;99.90;;;;;;5065236;28;20044;-74
2023/03/06 04:34:57;;;;;;;1.63;0.80;;;2.80;99.90;;;;;;5065455;28;20040;-74
2023/03/06 04:37:24;;;;;;;1.23;0.97;;;2.80;99.90;;;;;;5063768;28;20033;-74
2023/03/06 04:39:50;;;;;;;1.07;0.70;;;2.80;99.90;;;;;;5049517;28;20580;-74
2023/03/06 04:42:16;;;;;;;1.55;1.30;;;2.80;99.90;;;;;;5045847;28;20144;-74
2023/03/06 04:44:42;;;;;;;0.80;0.70;;;2.70;99.90;;;;;;5044941;28;20101;-74
2023/03/06 04:47:08;;;;;;;0.97;0.83;;;2.70;99.90;;;;;;5056333;28;20667;-75
2023/03/06 04:49:34;;;;;;;3.53;1.13;;;2.70;99.90;;;;;;5064511;28;20179;-74
2023/03/06 04:51:59;;;;;;;0.70;0.70;;;2.70;99.90;;;;;;5056263;28;20043;-76
2023/03/06 04:54:25;;;;;;;0.53;0.53;;;2.70;99.90;;;;;;5044973;28;20052;-74
2023/03/06 04:56:50;;;;;;;1.27;1.07;;;2.70;99.90;;;;;;5050531;28;20514;-74
2023/03/06 04:59:16;;;;;;;1.90;1.03;;;2.60;99.90;;;;;;5064206;28;20045;-74
2023/03/06 05:01:41;;;;;;;2.53;1.23;;;2.60;99.90;;;;;;5064644;28;20075;-73
2023/03/06 05:04:07;;;;;;;2.87;1.33;;;2.60;99.90;;;;;;5065131;28;20127;-74
2023/03/06 05:06:32;;;;;;;0.60;0.60;;;2.60;99.90;;;;;;5064584;28;20048;-73
2023/03/06 05:08:58;;;;;;;1.50;1.40;;;2.50;99.90;;;;;;5065270;28;20090;-74
2023/03/06 05:11:24;;;;;;;1.13;1.00;;;2.50;99.90;;;;;;5065507;28;20040;-74
2023/03/06 05:13:50;;;;;;;2.93;1.40;;;2.50;99.90;;;;;;5064233;28;20040;-73
2023/03/06 05:16:16;;;;;;;1.08;1.02;;;2.40;99.90;;;;;;5065380;28;20412;-74
2023/03/06 05:18:41;;;;;;;1.40;0.60;;;2.40;99.90;;;;;;5065445;28;20037;-74
2023/03/06 05:21:07;;;;;;;0.83;0.60;;;2.40;99.90;;;;;;5065342;28;20619;-74
2023/03/06 05:23:35;;;;;;;1.10;1.00;;;2.40;99.90;;;;;;5064500;28;20033;-73
2023/03/06 05:26:06;;;;;;;2.60;1.30;;;2.30;99.90;;;;;;5063651;28;20264;-74
2023/03/06 05:28:31;;;;;;;1.50;0.80;;;2.30;99.90;;;;;;5065321;28;20041;-74
2023/03/06 05:30:57;;;;;;;1.30;0.80;;;2.40;99.90;;;;;;5065739;28;20686;-74
2023/03/06 05:33:22;;;;;;;1.17;0.70;;;2.40;99.90;;;;;;5064980;28;20674;-74
2023/03/06 05:35:48;;;;;;;6.30;0.77;;;2.40;99.90;;;;;;5064326;28;20068;-73
2023/03/06 05:38:14;;;;;;;3.97;1.57;;;2.50;99.90;;;;;;5064315;28;20040;-74
2023/03/06 05:40:42;;;;;;;2.83;1.20;;;2.50;99.90;;;;;;5065634;28;20052;-74
2023/03/06 05:43:09;;;;;;;1.40;0.90;;;2.50;99.90;;;;;;5063519;28;20135;-74
2023/03/06 05:45:35;;;;;;;1.87;1.63;;;2.50;99.90;;;;;;5064187;28;20076;-74
2023/03/06 05:48:01;;;;;;;1.27;1.00;;;2.50;99.90;;;;;;5065281;28;20432;-75
2023/03/06 05:50:26;;;;;;;2.87;1.47;;;2.50;99.90;;;;;;5045701;28;20045;-74
2023/03/06 05:52:52;;;;;;;1.90;1.20;;;2.50;99.90;;;;;;5044489;28;20497;-74
2023/03/06 05:55:19;;;;;;;1.93;1.20;;;2.50;99.90;;;;;;5043766;28;20045;-73
2023/03/06 05:57:45;;;;;;;1.37;1.07;;;2.50;99.90;;;;;;5056616;28;20087;-74
2023/03/06 06:00:12;;;;;;;1.20;1.10;;;2.50;99.90;;;;;;5065175;28;20063;-75
2023/03/06 06:02:37;;;;;;;1.20;0.90;;;2.50;99.90;;;;;;5068414;28;20049;-75
2023/03/06 06:05:03;;;;;;;2.77;0.80;;;2.50;99.90;;;;;;5066873;28;20063;-73
2023/03/06 06:07:29;;;;;;;2.23;1.20;;;2.40;99.90;;;;;;5068765;28;20083;-73
2023/03/06 06:09:54;;;;;;;1.53;1.00;;;2.40;99.90;;;;;;5069130;28;20095;-74
2023/03/06 06:12:20;;;;;;;2.20;0.83;;;2.40;99.90;;;;;;5068988;28;20043;-73
2023/03/06 06:14:45;;;;;;;7.37;1.57;;;2.30;99.90;;;;;;5068871;28;20503;-73
2023/03/06 06:17:12;;;;;;;9.50;1.50;;;2.30;99.90;;;;;;5068327;28;20084;-73
2023/03/06 06:19:38;;;;;;;0.93;0.70;;;2.30;99.90;;;;;;5067286;28;20040;-73
2023/03/06 06:22:04;;;;;;;1.80;0.90;;;2.30;99.90;;;;;;5066232;28;20036;-73
2023/03/06 06:24:30;;;;;;;1.67;1.57;;;2.20;99.90;;;;;;5068533;28;20051;-74
2023/03/06 06:26:58;;;;;;;0.40;0.40;;;2.20;99.90;;;;;;5059297;28;20045;-73
2023/03/06 06:29:25;;;;;;;1.57;0.90;;;2.20;99.90;;;;;;5046893;28;20083;-72
2023/03/06 06:31:51;;;;;;;2.77;1.27;;;2.10;99.90;;;;;;5046907;28;20053;-73
2023/03/06 06:34:18;;;;;;;0.87;0.60;;;2.10;99.90;;;;;;5047911;28;20048;-73
2023/03/06 06:36:44;;;;;;;3.70;1.73;;;2.10;99.90;;;;;;5047298;28;20627;-73
2023/03/06 06:39:13;;;;;;;1.70;0.73;;;2.10;99.90;;;;;;5047788;28;20124;-73
2023/03/06 06:41:39;;;;;;;0.80;0.67;;;2.10;99.90;;;;;;5056346;28;20112;-74
2023/03/06 06:44:07;;;;;;;3.17;0.97;;;2.10;99.90;;;;;;5050342;28;20171;-74
2023/03/06 06:46:34;;;;;;;13.97;0.80;;;2.10;99.90;;;;;;5051371;28;20517;-73
2023/03/06 06:49:01;;;;;;;1.67;1.03;;;2.10;99.90;;;;;;5052291;28;20127;-74
2023/03/06 06:51:29;;;;;;;1.50;1.13;;;2.10;99.90;;;;;;5053225;28;20392;-73
2023/03/06 06:53:55;;;;;;;10.77;1.33;;;2.10;99.90;;;;;;5061414;28;21634;-73
2023/03/06 06:56:21;;;;;;;5.00;1.17;;;2.10;99.90;;;;;;5049883;28;20119;-72
2023/03/06 06:58:46;;;;;;;5.27;1.27;;;2.10;99.90;;;;;;5063750;28;20531;-72
2023/03/06 07:01:13;;;;;;;4.27;1.50;;;2.20;99.90;;;;;;5064192;28;20035;-72
2023/03/06 07:03:39;;;;;;;2.63;2.23;;;2.20;99.90;;;;;;5058935;28;20397;-71
2023/03/06 07:06:06;;;;;;;3.63;1.43;;;2.20;99.90;;;;;;5060410;28;20052;-72
2023/03/06 07:08:32;;;;;;;3.40;1.10;;;2.20;99.90;;;;;;5057545;28;20049;-72
2023/03/06 07:10:58;;;;;;;5.00;1.63;;;2.30;99.90;;;;;;5043291;28;20483;-72
2023/03/06 07:13:24;;;;;;;5.07;2.23;;;2.20;99.90;;;;;;5065015;28;20487;-72
2023/03/06 07:15:49;;;;;;;2.47;1.57;;;2.20;99.90;;;;;;5038389;28;20122;-72
2023/03/06 07:18:15;;;;;;;2.77;2.13;;;2.20;99.90;;;;;;5072057;28;20573;-72
2023/03/06 07:20:40;;;;;;;3.00;2.47;;;2.30;99.90;;;;;;5046462;28;20045;-71
2023/03/06 07:23:11;;;;;;;1.70;1.50;;;2.30;99.90;;;;;;5031413;28;20128;-72
2023/03/06 07:25:37;;;;;;;1.70;1.40;;;2.40;99.90;;;;;;5066065;28;20044;-71
2023/03/06 07:28:02;;;;;;;12.70;2.93;;;2.40;99.90;;;;;;5066568;28;20437;-72
2023/03/06 07:30:28;;;;;;;1.20;1.10;;;2.50;99.90;;;;;;5060433;28;20044;-72
2023/03/06 07:32:55;;;;;;;4.63;2.73;;;2.50;99.90;;;;;;5053308;28;20132;-72
2023/03/06 07:35:22;;;;;;;2.30;1.70;;;2.60;99.90;;;;;;5064610;28;20032;-72
2023/03/06 07:37:47;;;;;;;2.27;1.30;;;2.60;99.90;;;;;;5053667;28;20111;-71
2023/03/06 07:40:13;;;;;;;2.00;0.90;;;2.60;99.90;;;;;;5064303;28;20120;-72
2023/03/06 07:42:38;;;;;;;1.50;1.03;;;2.70;99.90;;;;;;5065486;28;20056;-72
2023/03/06 07:45:06;;;;;;;2.10;0.93;;;2.70;99.90;;;;;;5055457;28;20029;-72
2023/03/06 07:47:32;;;;;;;2.53;0.90;;;2.70;99.90;;;;;;5065920;28;20373;-74
2023/03/06 07:50:01;;;;;;;1.43;0.63;;;2.70;99.90;;;;;;5066745;28;20059;-74
2023/03/06 07:52:27;;;;;;;1.23;1.13;;;2.80;99.90;;;;;;5056648;28;20453;-76
2023/03/06 07:54:53;;;;;;;1.13;0.93;;;2.80;99.90;;;;;;5056221;28;20040;-76
2023/03/06 07:57:19;;;;;;;1.57;1.10;;;2.70;99.90;;;;;;5062645;28;20051;-75
2023/03/06 07:59:44;;;;;;;1.07;0.77;;;2.80;99.90;;;;;;5061184;28;20037;-76
2023/03/06 08:02:11;;;;;;;2.03;1.37;;;2.70;99.90;;;;;;5054158;28;20076;-76
2023/03/06 08:04:37;;;;;;;2.00;1.33;;;2.80;99.90;;;;;;5046774;28;20105;-73
2023/03/06 08:07:03;;;;;;;1.00;1.00;;;2.80;99.90;;;;;;5047775;28;20203;-73
2023/03/06 08:09:29;;;;;;;2.50;1.70;;;2.80;99.90;;;;;;5062809;28;20539;-74
2023/03/06 08:11:54;;;;;;;2.27;1.33;;;2.90;99.90;;;;;;5060399;28;20123;-74
2023/03/06 08:14:20;;;;;;;0.93;0.80;;;2.90;99.90;;;;;;5063606;28;20139;-73
2023/03/06 08:16:47;;;;;;;5.45;3.45;;;2.90;99.90;;;;;;5045616;28;20041;-73
2023/03/06 08:19:14;;;;;;;1.52;1.13;;;2.90;99.90;;;;;;5062048;28;20045;-74
2023/03/06 08:21:40;;;;;;;1.67;1.03;;;3.00;99.90;;;;;;5060209;28;20056;-74
2023/03/06 08:24:05;;;;;;;2.30;1.40;;;3.00;99.90;;;;;;5064039;28;20481;-74
2023/03/06 08:26:32;;;;;;;4.00;1.73;;;3.00;99.90;;;;;;5062141;28;20194;-75
2023/03/06 08:29:00;;;;;;;4.03;1.83;;;3.00;99.90;;;;;;5045518;28;20059;-74
2023/03/06 08:31:33;;;;;;;3.17;1.73;;;3.00;99.90;;;;;;5028979;28;20047;-74
2023/03/06 08:34:01;;;;;;;2.67;1.17;;;3.00;99.90;;;;;;5051516;28;20048;-74
2023/03/06 08:36:27;;;;;;;2.97;1.80;;;3.10;99.90;;;;;;5047054;28;20036;-74
2023/03/06 08:38:53;;;;;;;1.53;1.43;;;3.10;99.90;;;;;;5065489;28;20492;-73
2023/03/06 08:41:19;;;;;;;3.07;1.27;;;3.10;99.90;;;;;;5057842;28;20059;-74
2023/03/06 08:43:44;;;;;;;2.55;1.15;;;3.20;99.90;;;;;;5053115;28;20036;-73
2023/03/06 08:46:10;;;;;;;2.10;0.60;;;3.20;99.90;;;;;;5034257;28;20447;-73
2023/03/06 08:48:36;;;;;;;3.97;1.13;;;3.20;99.90;;;;;;5054739;28;20039;-74
2023/03/06 08:51:01;;;;;;;0.75;0.70;;;3.20;99.90;;;;;;5063419;28;20442;-73
2023/03/06 08:53:27;;;;;;;0.80;0.60;;;3.30;99.90;;;;;;5058713;28;20611;-73
2023/03/06 08:55:53;;;;;;;1.40;0.70;;;3.30;99.90;;;;;;5053338;28;20518;-73
2023/03/06 08:58:18;;;;;;;2.20;1.30;;;3.30;99.90;;;;;;5050062;28;20116;-72
2023/03/06 09:00:44;;;;;;;3.08;0.57;;;3.40;99.90;;;;;;5064802;28;20032;-71
2023/03/06 09:03:10;;;;;;;0.70;0.55;;;3.40;99.90;;;;;;5062663;28;20090;-73
2023/03/06 09:05:36;;;;;;;0.73;0.70;;;3.40;99.90;;;;;;5064869;28;20052;-72
2023/03/06 09:08:01;;;;;;;5.25;1.15;;;3.50;99.90;;;;;;5061527;28;20135;-73
2023/03/06 09:10:28;;;;;;;3.45;1.30;;;3.50;99.90;;;;;;5063311;28;20231;-72
2023/03/06 09:12:53;;;;;;;1.70;0.88;;;3.50;99.90;;;;;;5064770;28;20488;-72
2023/03/06 09:15:20;;;;;;;1.27;0.40;;;3.50;99.90;;;;;;5036759;28;20699;-73
2023/03/06 09:17:46;;;;;;;1.02;1.00;;;3.50;99.90;;;;;;5052607;28;20439;-73
2023/03/06 09:20:13;;;;;;;0.95;0.77;;;3.60;99.90;;;;;;5051770;28;20056;-73
2023/03/06 09:22:41;;;;;;;3.20;1.30;;;3.60;99.90;;;;;;5063333;28;20036;-73
2023/03/06 09:25:08;;;;;;;1.17;0.68;;;3.60;99.90;;;;;;5058254;28;20045;-75
2023/03/06 09:27:33;;;;;;;1.37;0.70;;;3.70;99.90;;;;;;5055391;28;20033;-73
2023/03/06 09:29:59;;;;;;;0.77;0.50;;;3.80;99.90;;;;;;5055463;28;20048;-72
2023/03/06 09:32:25;;;;;;;1.17;0.60;;;3.80;99.90;;;;;;5050523;28;20049;-71
2023/03/06 09:34:50;;;;;;;1.23;0.80;;;3.90;99.90;;;;;;5056486;28;20543;-72
2023/03/06 09:37:16;;;;;;;0.47;0.47;;;3.90;99.90;;;;;;5048585;28;20467;-72
2023/03/06 09:39:43;;;;;;;8.20;1.95;;;3.90;99.90;;;;;;5054396;28;20043;-73
2023/03/06 09:42:14;;;;;;;2.20;0.93;;;4.00;99.90;;;;;;5048172;28;20524;-71
2023/03/06 09:44:42;;;;;;;1.33;0.40;;;4.00;99.90;;;;;;5059409;28;20048;-72
2023/03/06 09:47:45;;;;;;;4.55;0.65;;;4.00;99.90;;;;;;5059855;28;20025;-74
2023/03/06 09:50:21;;;;;;;5.60;0.60;;;4.00;99.90;;;;;;5058143;28;20508;-71
2023/03/06 09:53:00;;;;;;;2.33;1.02;;;4.10;99.90;;;;;;5064619;28;20059;-72
2023/03/06 09:55:31;;;;;;;8.10;0.82;;;4.10;99.90;;;;;;5055948;28;20086;-72
2023/03/06 09:58:17;;;;;;;0.88;0.88;;;4.10;99.90;;;;;;5068158;28;20040;-73
2023/03/06 10:01:02;;;;;;;0.52;0.52;;;4.10;99.90;;;;;;5068106;28;20119;-72
2023/03/06 10:03:46;;;;;;;0.88;0.40;;;4.10;99.90;;;;;;5066398;28;20127;-73
2023/03/06 10:06:18;;;;;;;6.95;1.40;;;4.10;99.90;;;;;;5066544;28;20067;-72
2023/03/06 10:09:13;;;;;;;0.73;0.50;;;4.20;99.90;;;;;;5066517;28;20037;-72
2023/03/06 10:11:59;;;;;;;1.77;0.70;;;4.20;99.90;;;;;;5052414;28;20037;-72
2023/03/06 10:14:38;;;;;;;2.38;0.75;;;4.20;99.90;;;;;;5037678;28;20055;-72
2023/03/06 10:17:05;;;;;;;0.80;0.50;;;4.20;99.90;;;;;;5050884;28;20044;-73
2023/03/06 10:19:36;;;;;;;1.45;0.40;;;4.20;99.90;;;;;;5055548;28;20045;-71
2023/03/06 10:22:41;;;;;;;0.90;0.70;;;4.20;99.90;;;;;;5052696;28;20041;-72
2023/03/06 10:25:27;;;;;;;3.47;0.80;;;4.20;99.90;;;;;;5048933;28;20049;-72
2023/03/06 10:28:25;;;;;;;0.93;0.40;;;4.20;99.90;;;;;;5055908;28;20048;-73
2023/03/06 10:31:09;;;;;;;0.68;0.60;;;4.20;99.90;;;;;;5047483;28;20062;-74
2023/03/06 10:33:53;;;;;;;2.25;0.70;;;4.30;99.90;;;;;;5066205;28;20339;-72
2023/03/06 10:36:22;;;;;;;0.93;0.70;;;4.30;99.90;;;;;;5050299;28;20487;-72
2023/03/06 10:38:48;;;;;;;0.77;0.70;;;4.30;99.90;;;;;;5057755;28;20257;-74
2023/03/06 10:41:22;;;;;;;0.52;0.40;;;4.30;99.90;;;;;;5063460;28;20073;-73
2023/03/06 10:44:00;;;;;;;4.63;0.95;;;4.30;99.90;;;;;;5067244;28;20563;-72
2023/03/06 10:46:31;;;;;;;0.45;0.45;;;4.30;99.90;;;;;;5059088;28;20041;-74
2023/03/06 10:48:59;;;;;;;0.50;0.50;;;4.30;99.90;;;;;;5046284;28;20041;-74
2023/03/06 10:51:27;;;;;;;1.17;1.08;;;4.30;99.90;;;;;;5047371;28;20037;-74
2023/03/06 10:54:00;;;;;;;4.05;1.45;;;4.30;99.90;;;;;;5060414;28;20091;-73
2023/03/06 10:56:35;;;;;;;1.23;0.70;;;4.30;99.90;;;;;;5065624;28;20059;-74
2023/03/06 10:59:15;;;;;;;1.15;0.55;;;4.30;99.90;;;;;;5064603;28;20064;-74
2023/03/06 11:01:42;;;;;;;0.45;0.40;;;4.40;99.90;;;;;;5056027;28;20086;-75
2023/03/06 11:04:30;;;;;;;0.55;0.43;;;4.40;99.90;;;;;;5049523;28;20052;-76
2023/03/06 11:07:15;;;;;;;1.33;0.73;;;4.40;99.90;;;;;;5051006;28;20130;-73
2023/03/06 11:09:46;;;;;;;0.20;0.20;;;4.40;99.90;;;;;;5045215;28;20053;-73
2023/03/06 11:12:18;;;;;;;8.68;1.60;;;4.50;99.90;;;;;;5046750;28;20061;-73
2023/03/06 11:14:43;;;;;;;0.68;0.47;;;4.50;99.90;;;;;;5050109;28;20405;-74
2023/03/06 11:17:27;;;;;;;0.25;0.25;;;4.50;99.90;;;;;;5060124;28;20048;-73
2023/03/06 11:20:15;;;;;;;6.68;0.82;;;4.60;99.90;;;;;;5047422;28;20052;-73
2023/03/06 11:22:44;;;;;;;0.55;0.55;;;4.60;99.90;;;;;;5048772;28;20388;-75
2023/03/06 11:25:12;;;;;;;4.30;0.85;;;4.60;99.90;;;;;;5060937;28;20397;-74
2023/03/06 11:27:41;;;;;;;0.85;0.85;;;4.60;99.90;;;;;;5063916;28;20037;-73
2023/03/06 11:30:18;;;;;;;0.98;0.80;;;4.70;99.90;;;;;;5059277;28;20536;-73
2023/03/06 11:32:51;;;;;;;1.13;0.40;;;4.70;99.90;;;;;;5054279;28;20040;-72
2023/03/06 11:35:21;;;;;;;;;;;4.80;99.90;;;;;;5050885;28;20464;-72
2023/03/06 11:37:50;;;;;;;3.25;0.40;;;4.80;99.90;;;;;;5044847;28;19927;-72
2023/03/06 11:40:35;;;;;;;1.27;0.57;;;4.90;99.90;;;;;;5058454;28;20500;-72
2023/03/06 11:43:19;;;;;;;7.05;0.77;;;4.90;99.90;;;;;;5063986;28;20535;-71
2023/03/06 11:45:51;;;;;;;1.17;1.17;;;4.90;99.90;;;;;;5054926;28;20090;-71
2023/03/06 11:48:37;;;;;;;0.47;0.47;;;5.00;99.90;;;;;;5032078;28;20059;-72
2023/03/06 11:51:10;;;;;;;0.65;0.50;;;5.00;99.90;;;;;;5043192;28;20053;-72
2023/03/06 11:53:38;;;;;;;0.60;0.60;;;5.00;99.90;;;;;;5045350;28;20050;-71
2023/03/06 11:56:38;;;;;;;1.48;0.50;;;5.00;99.90;;;;;;5046920;28;20047;-72
2023/03/06 11:59:28;;;;;;;0.60;0.55;;;5.10;99.90;;;;;;5064203;28;20447;-70
2023/03/06 12:02:22;;;;;;;2.35;1.17;;;5.10;99.90;;;;;;5059858;28;20052;-71
2023/03/06 12:04:56;;;;;;;2.45;1.00;;;5.20;99.90;;;;;;5044817;28;20071;-72
2023/03/06 12:07:54;;;;;;;0.60;0.60;;;5.30;99.90;;;;;;5046791;28;20487;-74
2023/03/06 12:10:40;;;;;;;0.50;0.50;;;5.30;99.90;;;;;;5071179;28;20040;-71
2023/03/06 12:13:17;;;;;;;1.88;1.30;;;5.40;99.90;;;;;;5071843;28;20036;-72
2023/03/06 12:15:52;;;;;;;0.65;0.50;;;5.40;99.90;;;;;;5064932;28;20056;-71
2023/03/06 12:18:37;;;;;;;2.50;0.80;;;5.40;99.90;;;;;;5065132;28;20443;-71
2023/03/06 12:21:10;;;;;;;0.30;0.30;;;5.50;99.90;;;;;;5050435;28;20103;-71
2023/03/06 12:24:21;;;;;;;1.15;0.70;;;5.60;99.90;;;;;;5058566;28;20051;-72
2023/03/06 12:26:46;;;;;;;0.57;0.57;;;5.70;99.90;;;;;;5039967;28;20465;-72
2023/03/06 12:29:45;;;;;;;0.40;0.40;;;5.70;99.90;;;;;;5043217;28;20052;-71
2023/03/06 12:32:37;;;;;;;3.60;1.08;;;5.70;99.90;;;;;;5054227;28;20460;-71
2023/03/06 12:35:08;;;;;;;0.32;0.32;;;5.70;99.90;;;;;;5063005;28;20044;-71
2023/03/06 12:38:15;;;;;;;1.25;0.60;;;5.70;99.90;;;;;;5062496;28;20052;-71
2023/03/06 12:40:52;;;;;;;1.45;0.60;;;5.80;99.90;;;;;;5062940;28;20622;-72
2023/03/06 12:43:32;;;;;;;0.55;0.55;;;5.80;99.90;;;;;;5045170;28;20500;-71
2023/03/06 12:46:21;;;;;;;0.88;0.50;;;5.80;99.90;;;;;;5070678;28;20063;-72
2023/03/06 12:49:00;;;;;;;2.00;0.45;;;5.80;99.90;;;;;;5062892;28;20040;-71
2023/03/06 12:51:27;;;;;;;0.60;0.30;;;5.90;99.90;;;;;;5062513;28;20048;-71
2023/03/06 12:53:53;;;;;;;1.63;0.77;;;5.90;99.90;;;;;;5063763;28;20044;-71
2023/03/06 12:56:21;;;;;;;1.02;0.40;;;5.90;99.90;;;;;;5047999;28;20033;-71
2023/03/06 12:58:48;;;;;;;1.67;0.60;;;5.90;99.90;;;;;;5044189;28;20485;-71
2023/03/06 13:01:40;;;;;;;0.30;0.30;;;5.90;99.90;;;;;;5044288;28;20045;-71
2023/03/06 13:04:32;;;;;;;6.43;1.23;;;5.90;99.90;;;;;;5043742;28;20053;-72
2023/03/06 13:07:07;;;;;;;0.95;0.52;;;5.90;99.90;;;;;;5045443;28;20047;-71
2023/03/06 13:10:05;;;;;;;1.38;0.70;;;5.90;99.90;;;;;;5062262;28;20531;-72
2023/03/06 13:12:44;;;;;;;0.65;0.63;;;5.90;99.90;;;;;;5062372;28;20048;-72